sensor_id;sensor_type;location;lat;lon;timestamp;pressure;altitude;pressure_sealevel;temperature;humidity
32735;BME280;19112;51.076;3.706;2023-02-19T00:01:28;101882.28;;;13.16;76.47
32735;BME280;19112;51.076;3.706;2023-02-19T00:04:01;101683.38;;;11.95;76.31
32735;BME280;19112;51.076;3.706;2023-02-19T00:06:29;101694.34;;;12.06;76.24
32735;BME280;19112;51.076;3.706;2023-02-19T00:08:56;101942.56;;;13.51;76.12
32735;BME280;19112;51.076;3.706;2023-02-19T00:11:25;101956.75;;;13.53;76.10
32735;BME280;19112;51.076;3.706;2023-02-19T00:13:53;101913.56;;;13.29;75.82
32735;BME280;19112;51.076;3.706;2023-02-19T00:16:25;101945.22;;;13.51;75.75
32735;BME280;19112;51.076;3.706;2023-02-19T00:18:53;101878.56;;;13.10;75.77
32735;BME280;19112;51.076;3.706;2023-02-19T00:21:20;101862.88;;;12.93;75.86
32735;BME280;19112;51.076;3.706;2023-02-19T00:23:59;101927.13;;;13.38;75.78
32735;BME280;19112;51.076;3.706;2023-02-19T00:26:26;101829.78;;;12.56;75.87
32735;BME280;19112;51.076;3.706;2023-02-19T00:28:54;101821.06;;;12.57;75.77
32735;BME280;19112;51.076;3.706;2023-02-19T00:31:26;101949.25;;;13.21;76.12
32735;BME280;19112;51.076;3.706;2023-02-19T00:33:56;101960.63;;;13.41;76.17
32735;BME280;19112;51.076;3.706;2023-02-19T00:36:23;101296.84;;;9.61;75.40
32735;BME280;19112;51.076;3.706;2023-02-19T00:38:50;101705.19;;;11.93;75.74
32735;BME280;19112;51.076;3.706;2023-02-19T00:41:31;101633.50;;;11.57;75.41
32735;BME280;19112;51.076;3.706;2023-02-19T00:44:02;101957.81;;;13.36;75.35
32735;BME280;19112;51.076;3.706;2023-02-19T00:46:34;101960.44;;;13.36;75.61
32735;BME280;19112;51.076;3.706;2023-02-19T00:49:01;101854.31;;;12.76;75.27
32735;BME280;19112;51.076;3.706;2023-02-19T00:51:32;101929.72;;;13.16;75.44
32735;BME280;19112;51.076;3.706;2023-02-19T00:53:58;101933.41;;;13.21;75.11
32735;BME280;19112;51.076;3.706;2023-02-19T00:56:24;101826.38;;;12.58;74.96
32735;BME280;19112;51.076;3.706;2023-02-19T00:58:51;101879.09;;;12.81;75.06
32735;BME280;19112;51.076;3.706;2023-02-19T01:01:17;101828.31;;;12.63;74.67
32735;BME280;19112;51.076;3.706;2023-02-19T01:03:44;101936.06;;;13.21;74.32
32735;BME280;19112;51.076;3.706;2023-02-19T01:06:12;101902.00;;;13.04;74.24
32735;BME280;19112;51.076;3.706;2023-02-19T01:08:38;101936.72;;;13.15;74.35
32735;BME280;19112;51.076;3.706;2023-02-19T01:11:06;101714.63;;;11.88;74.14
32735;BME280;19112;51.076;3.706;2023-02-19T01:13:33;101826.94;;;12.51;74.19
32735;BME280;19112;51.076;3.706;2023-02-19T01:16:25;101917.00;;;13.05;73.85
32735;BME280;19112;51.076;3.706;2023-02-19T01:18:52;101869.63;;;12.64;73.97
32735;BME280;19112;51.076;3.706;2023-02-19T01:21:22;101473.56;;;10.42;74.01
32735;BME280;19112;51.076;3.706;2023-02-19T01:23:49;101935.19;;;12.99;73.79
32735;BME280;19112;51.076;3.706;2023-02-19T01:26:19;101904.06;;;12.89;73.86
32735;BME280;19112;51.076;3.706;2023-02-19T01:28:46;101841.09;;;12.53;73.25
32735;BME280;19112;51.076;3.706;2023-02-19T01:31:17;101972.31;;;13.25;73.06
32735;BME280;19112;51.076;3.706;2023-02-19T01:33:45;101726.22;;;11.93;72.58
32735;BME280;19112;51.076;3.706;2023-02-19T01:36:12;101948.91;;;13.11;72.73
32735;BME280;19112;51.076;3.706;2023-02-19T01:38:38;101957.75;;;13.14;72.69
32735;BME280;19112;51.076;3.706;2023-02-19T01:41:06;102010.38;;;13.31;72.53
32735;BME280;19112;51.076;3.706;2023-02-19T01:43:52;101902.97;;;12.84;72.47
32735;BME280;19112;51.076;3.706;2023-02-19T01:46:19;101436.34;;;10.12;72.19
32735;BME280;19112;51.076;3.706;2023-02-19T01:48:45;101888.41;;;12.73;72.48
32735;BME280;19112;51.076;3.706;2023-02-19T01:51:15;101881.72;;;12.58;72.02
32735;BME280;19112;51.076;3.706;2023-02-19T01:53:46;101820.69;;;12.27;71.86
32735;BME280;19112;51.076;3.706;2023-02-19T01:56:16;101492.38;;;10.32;71.86
32735;BME280;19112;51.076;3.706;2023-02-19T01:58:44;101923.00;;;12.80;72.02
32735;BME280;19112;51.076;3.706;2023-02-19T02:01:10;101961.75;;;13.04;71.72
32735;BME280;19112;51.076;3.706;2023-02-19T02:03:39;102004.09;;;13.28;71.62
32735;BME280;19112;51.076;3.706;2023-02-19T02:06:30;101914.50;;;12.88;71.89
32735;BME280;19112;51.076;3.706;2023-02-19T02:08:58;101819.44;;;12.19;71.29
32735;BME280;19112;51.076;3.706;2023-02-19T02:11:49;101978.91;;;13.15;71.23
32735;BME280;19112;51.076;3.706;2023-02-19T02:14:23;101771.38;;;12.02;71.17
32735;BME280;19112;51.076;3.706;2023-02-19T02:31:56;101733.56;;;11.60;71.09
32735;BME280;19112;51.076;3.706;2023-02-19T02:34:29;102001.00;;;12.96;71.44
32735;BME280;19112;51.076;3.706;2023-02-19T02:36:59;101734.78;;;11.47;71.37
32735;BME280;19112;51.076;3.706;2023-02-19T02:39:27;102014.81;;;13.11;71.41
32735;BME280;19112;51.076;3.706;2023-02-19T02:41:58;101818.28;;;11.72;71.55
32735;BME280;19112;51.076;3.706;2023-02-19T02:44:43;101856.06;;;12.13;71.56
32735;BME280;19112;51.076;3.706;2023-02-19T02:47:36;101806.53;;;11.83;71.37
32735;BME280;19112;51.076;3.706;2023-02-19T02:50:10;101979.69;;;12.92;71.24
32735;BME280;19112;51.076;3.706;2023-02-19T02:52:38;101950.13;;;12.78;70.75
32735;BME280;19112;51.076;3.706;2023-02-19T02:55:24;101295.19;;;9.05;70.46
32735;BME280;19112;51.076;3.706;2023-02-19T02:57:51;101997.69;;;12.81;70.77
32735;BME280;19112;51.076;3.706;2023-02-19T03:00:17;102020.72;;;13.06;71.00
32735;BME280;19112;51.076;3.706;2023-02-19T03:02:43;101778.47;;;11.64;70.69
32735;BME280;19112;51.076;3.706;2023-02-19T03:05:19;101799.25;;;11.58;70.98
32735;BME280;19112;51.076;3.706;2023-02-19T03:08:18;101933.69;;;12.42;70.98
32735;BME280;19112;51.076;3.706;2023-02-19T03:11:05;101971.59;;;12.66;70.76
32735;BME280;19112;51.076;3.706;2023-02-19T03:14:00;101825.47;;;11.76;71.10
32735;BME280;19112;51.076;3.706;2023-02-19T03:16:57;101790.94;;;11.68;70.97
32735;BME280;19112;51.076;3.706;2023-02-19T03:19:49;102047.16;;;13.07;70.90
32735;BME280;19112;51.076;3.706;2023-02-19T03:22:23;102041.22;;;12.92;71.04
32735;BME280;19112;51.076;3.706;2023-02-19T03:25:03;101861.44;;;11.95;70.68
32735;BME280;19112;51.076;3.706;2023-02-19T03:27:48;101785.63;;;11.47;70.92
32735;BME280;19112;51.076;3.706;2023-02-19T03:30:23;101966.06;;;12.60;70.78
32735;BME280;19112;51.076;3.706;2023-02-19T03:33:21;101966.22;;;12.63;70.69
32735;BME280;19112;51.076;3.706;2023-02-19T03:35:55;101930.94;;;12.40;70.46
32735;BME280;19112;51.076;3.706;2023-02-19T03:41:25;101971.97;;;12.54;70.27
32735;BME280;19112;51.076;3.706;2023-02-19T03:44:24;102069.19;;;13.09;70.17
32735;BME280;19112;51.076;3.706;2023-02-19T03:47:26;102060.72;;;12.96;70.54
32735;BME280;19112;51.076;3.706;2023-02-19T03:50:05;101711.16;;;10.89;70.56
32735;BME280;19112;51.076;3.706;2023-02-19T03:55:40;102034.66;;;12.82;70.12
32735;BME280;19112;51.076;3.706;2023-02-19T03:58:26;102009.94;;;12.59;70.39
32735;BME280;19112;51.076;3.706;2023-02-19T04:01:04;101918.13;;;12.07;70.45
32735;BME280;19112;51.076;3.706;2023-02-19T04:04:03;102003.31;;;12.48;70.44
32735;BME280;19112;51.076;3.706;2023-02-19T04:06:33;101971.47;;;12.23;70.53
32735;BME280;19112;51.076;3.706;2023-02-19T04:09:04;102041.19;;;12.71;70.54
32735;BME280;19112;51.076;3.706;2023-02-19T04:11:32;102003.31;;;12.48;70.35
32735;BME280;19112;51.076;3.706;2023-02-19T04:14:40;102085.56;;;12.81;70.38
32735;BME280;19112;51.076;3.706;2023-02-19T04:17:21;102006.06;;;12.30;70.82
32735;BME280;19112;51.076;3.706;2023-02-19T04:19:50;102098.81;;;12.83;70.66
32735;BME280;19112;51.076;3.706;2023-02-19T04:22:18;102060.63;;;12.54;70.94
32735;BME280;19112;51.076;3.706;2023-02-19T04:24:49;101997.38;;;12.14;70.91
32735;BME280;19112;51.076;3.706;2023-02-19T04:27:15;101967.66;;;11.97;70.75
32735;BME280;19112;51.076;3.706;2023-02-19T04:29:41;102090.66;;;12.57;70.42
32735;BME280;19112;51.076;3.706;2023-02-19T04:32:12;101896.28;;;11.71;69.81
32735;BME280;19112;51.076;3.706;2023-02-19T04:34:39;101912.22;;;11.74;70.10
32735;BME280;19112;51.076;3.706;2023-02-19T04:37:05;102099.22;;;12.92;69.63
32735;BME280;19112;51.076;3.706;2023-02-19T04:39:31;102015.13;;;12.37;69.44
32735;BME280;19112;51.076;3.706;2023-02-19T04:41:57;102089.19;;;12.64;69.38
32735;BME280;19112;51.076;3.706;2023-02-19T04:44:22;102107.69;;;12.85;69.37
32735;BME280;19112;51.076;3.706;2023-02-19T04:46:48;102122.09;;;12.93;69.49
32735;BME280;19112;51.076;3.706;2023-02-19T04:49:14;101830.41;;;11.30;69.28
32735;BME280;19112;51.076;3.706;2023-02-19T04:51:40;101783.28;;;11.15;68.86
32735;BME280;19112;51.076;3.706;2023-02-19T04:54:07;101876.22;;;11.73;68.55
32735;BME280;19112;51.076;3.706;2023-02-19T04:56:32;102121.94;;;13.09;68.38
32735;BME280;19112;51.076;3.706;2023-02-19T04:58:58;102018.03;;;12.43;67.93
32735;BME280;19112;51.076;3.706;2023-02-19T05:01:24;102043.78;;;12.70;67.72
32735;BME280;19112;51.076;3.706;2023-02-19T05:03:51;101890.22;;;11.72;68.01
32735;BME280;19112;51.076;3.706;2023-02-19T05:06:17;101822.44;;;11.28;67.57
32735;BME280;19112;51.076;3.706;2023-02-19T05:08:43;102052.19;;;12.42;67.86
32735;BME280;19112;51.076;3.706;2023-02-19T05:11:10;102122.75;;;12.68;68.08
32735;BME280;19112;51.076;3.706;2023-02-19T05:13:38;101923.50;;;11.52;68.05
32735;BME280;19112;51.076;3.706;2023-02-19T05:16:10;101993.63;;;11.89;68.25
32735;BME280;19112;51.076;3.706;2023-02-19T05:18:39;101942.13;;;11.57;68.28
32735;BME280;19112;51.076;3.706;2023-02-19T05:21:05;101962.97;;;11.72;68.06
32735;BME280;19112;51.076;3.706;2023-02-19T05:23:31;102160.63;;;12.70;68.37
32735;BME280;19112;51.076;3.706;2023-02-19T05:25:56;102171.84;;;12.66;68.49
32735;BME280;19112;51.076;3.706;2023-02-19T05:28:23;101816.38;;;10.74;68.26
32735;BME280;19112;51.076;3.706;2023-02-19T05:30:55;101883.84;;;11.11;68.27
32735;BME280;19112;51.076;3.706;2023-02-19T05:33:24;102055.22;;;12.12;68.16
32735;BME280;19112;51.076;3.706;2023-02-19T05:35:53;102060.69;;;12.17;67.93
32735;BME280;19112;51.076;3.706;2023-02-19T05:38:20;101880.03;;;11.23;67.76
32735;BME280;19112;51.076;3.706;2023-02-19T05:40:46;102084.63;;;12.21;67.79
32735;BME280;19112;51.076;3.706;2023-02-19T05:43:13;101931.22;;;11.30;68.08
32735;BME280;19112;51.076;3.706;2023-02-19T05:45:40;101813.69;;;10.72;67.66
32735;BME280;19112;51.076;3.706;2023-02-19T05:48:07;101929.38;;;11.29;67.84
32735;BME280;19112;51.076;3.706;2023-02-19T05:50:34;102139.31;;;12.46;68.14
32735;BME280;19112;51.076;3.706;2023-02-19T05:53:02;102155.13;;;12.66;68.05
32735;BME280;19112;51.076;3.706;2023-02-19T05:55:29;102126.13;;;12.27;67.94
32735;BME280;19112;51.076;3.706;2023-02-19T05:57:58;102197.16;;;12.63;67.84
32735;BME280;19112;51.076;3.706;2023-02-19T06:00:23;102200.41;;;12.57;68.20
32735;BME280;19112;51.076;3.706;2023-02-19T06:02:52;102197.50;;;12.70;67.81
32735;BME280;19112;51.076;3.706;2023-02-19T06:05:19;101955.00;;;11.33;68.01
32735;BME280;19112;51.076;3.706;2023-02-19T06:07:44;102210.84;;;12.73;67.93
32735;BME280;19112;51.076;3.706;2023-02-19T06:10:11;102143.09;;;12.33;67.80
32735;BME280;19112;51.076;3.706;2023-02-19T06:12:38;102166.75;;;12.51;67.83
32735;BME280;19112;51.076;3.706;2023-02-19T06:15:05;101982.03;;;11.48;67.68
32735;BME280;19112;51.076;3.706;2023-02-19T06:17:32;102090.06;;;12.06;68.04
32735;BME280;19112;51.076;3.706;2023-02-19T06:19:59;101947.13;;;11.15;68.04
32735;BME280;19112;51.076;3.706;2023-02-19T06:22:26;102179.47;;;12.60;67.59
32735;BME280;19112;51.076;3.706;2023-02-19T06:24:52;102112.91;;;12.25;67.44
32735;BME280;19112;51.076;3.706;2023-02-19T06:27:18;101824.66;;;10.64;67.02
32735;BME280;19112;51.076;3.706;2023-02-19T06:29:43;102180.91;;;12.53;67.52
32735;BME280;19112;51.076;3.706;2023-02-19T06:32:09;101969.28;;;11.20;68.02
32735;BME280;19112;51.076;3.706;2023-02-19T06:34:35;101939.91;;;11.11;67.38
32735;BME280;19112;51.076;3.706;2023-02-19T06:37:02;101942.72;;;11.14;67.55
32735;BME280;19112;51.076;3.706;2023-02-19T06:39:27;102150.78;;;12.29;67.69
32735;BME280;19112;51.076;3.706;2023-02-19T06:41:57;102180.03;;;12.53;67.72
32735;BME280;19112;51.076;3.706;2023-02-19T06:44:24;102037.03;;;11.62;67.52
32735;BME280;19112;51.076;3.706;2023-02-19T06:46:50;102072.78;;;11.76;67.83
32735;BME280;19112;51.076;3.706;2023-02-19T06:49:16;102172.59;;;12.44;67.47
32735;BME280;19112;51.076;3.706;2023-02-19T06:51:42;102232.94;;;12.77;67.36
32735;BME280;19112;51.076;3.706;2023-02-19T06:54:08;102201.44;;;12.61;67.14
32735;BME280;19112;51.076;3.706;2023-02-19T06:56:37;102202.44;;;12.63;67.35
32735;BME280;19112;51.076;3.706;2023-02-19T06:59:13;101643.19;;;9.49;66.78
32735;BME280;19112;51.076;3.706;2023-02-19T07:01:42;102189.06;;;12.40;67.24
32735;BME280;19112;51.076;3.706;2023-02-19T07:04:08;101990.53;;;11.07;67.22
32735;BME280;19112;51.076;3.706;2023-02-19T07:06:35;102175.59;;;12.34;67.41
32735;BME280;19112;51.076;3.706;2023-02-19T07:09:02;102045.06;;;11.65;67.29
32735;BME280;19112;51.076;3.706;2023-02-19T07:11:31;102192.78;;;12.26;67.45
32735;BME280;19112;51.076;3.706;2023-02-19T07:14:03;102255.81;;;12.78;67.65
32735;BME280;19112;51.076;3.706;2023-02-19T07:16:29;102092.56;;;11.68;67.71
32735;BME280;19112;51.076;3.706;2023-02-19T07:18:57;102260.09;;;12.56;67.93
32735;BME280;19112;51.076;3.706;2023-02-19T07:21:24;102073.41;;;11.52;68.18
32735;BME280;19112;51.076;3.706;2023-02-19T07:23:50;102273.97;;;12.52;68.40
32735;BME280;19112;51.076;3.706;2023-02-19T07:26:18;102236.44;;;12.21;68.48
32735;BME280;19112;51.076;3.706;2023-02-19T07:28:47;102281.69;;;12.49;68.38
32735;BME280;19112;51.076;3.706;2023-02-19T07:31:14;101517.09;;;8.24;67.96
32735;BME280;19112;51.076;3.706;2023-02-19T07:33:45;102286.91;;;12.48;68.32
32735;BME280;19112;51.076;3.706;2023-02-19T07:36:12;102224.16;;;12.21;68.41
32735;BME280;19112;51.076;3.706;2023-02-19T07:38:38;102202.13;;;12.01;68.17
32735;BME280;19112;51.076;3.706;2023-02-19T07:41:05;102233.41;;;12.13;68.63
32735;BME280;19112;51.076;3.706;2023-02-19T07:43:34;101987.91;;;10.89;68.15
32735;BME280;19112;51.076;3.706;2023-02-19T07:46:09;102306.16;;;12.65;68.29
32735;BME280;19112;51.076;3.706;2023-02-19T07:48:37;102139.38;;;11.75;68.38
32735;BME280;19112;51.076;3.706;2023-02-19T07:51:04;102236.25;;;12.18;68.14
32735;BME280;19112;51.076;3.706;2023-02-19T07:53:33;102101.72;;;11.40;68.01
32735;BME280;19112;51.076;3.706;2023-02-19T07:56:02;102059.03;;;11.28;67.59
32735;BME280;19112;51.076;3.706;2023-02-19T07:58:29;102065.13;;;11.45;67.25
32735;BME280;19112;51.076;3.706;2023-02-19T08:00:55;102223.81;;;12.51;66.95
32735;BME280;19112;51.076;3.706;2023-02-19T08:03:21;102174.19;;;12.23;66.83
32735;BME280;19112;51.076;3.706;2023-02-19T08:05:47;102003.91;;;11.12;66.64
32735;BME280;19112;51.076;3.706;2023-02-19T08:08:15;102061.44;;;11.41;66.41
32735;BME280;19112;51.076;3.706;2023-02-19T08:10:41;102215.63;;;12.45;66.22
32735;BME280;19112;51.076;3.706;2023-02-19T08:13:29;102315.53;;;12.95;66.07
32735;BME280;19112;51.076;3.706;2023-02-19T08:18:29;102010.75;;;11.08;66.20
32735;BME280;19112;51.076;3.706;2023-02-19T08:20:56;102269.91;;;12.41;66.37
32735;BME280;19112;51.076;3.706;2023-02-19T08:23:22;102365.13;;;13.04;66.22
32735;BME280;19112;51.076;3.706;2023-02-19T08:25:50;102331.75;;;12.85;65.96
32735;BME280;19112;51.076;3.706;2023-02-19T08:28:17;102340.91;;;12.93;66.15
32735;BME280;19112;51.076;3.706;2023-02-19T08:30:46;101850.19;;;9.98;65.91
32735;BME280;19112;51.076;3.706;2023-02-19T08:33:18;102323.22;;;12.73;66.00
32735;BME280;19112;51.076;3.706;2023-02-19T08:35:44;102347.97;;;12.94;65.69
32735;BME280;19112;51.076;3.706;2023-02-19T08:38:12;102127.06;;;11.74;65.12
32735;BME280;19112;51.076;3.706;2023-02-19T08:40:39;102162.59;;;11.66;64.81
32735;BME280;19112;51.076;3.706;2023-02-19T08:43:09;101862.38;;;10.14;65.46
32735;BME280;19112;51.076;3.706;2023-02-19T08:45:37;102311.38;;;12.63;65.11
32735;BME280;19112;51.076;3.706;2023-02-19T08:48:04;102258.75;;;12.29;65.40
32735;BME280;19112;51.076;3.706;2023-02-19T08:50:30;102290.53;;;12.32;65.51
32735;BME280;19112;51.076;3.706;2023-02-19T08:52:58;102334.38;;;12.49;66.18
32735;BME280;19112;51.076;3.706;2023-02-19T08:55:25;102240.25;;;11.92;66.38
32735;BME280;19112;51.076;3.706;2023-02-19T08:57:50;102349.75;;;12.76;65.70
32735;BME280;19112;51.076;3.706;2023-02-19T09:00:17;102334.78;;;12.94;65.52
32735;BME280;19112;51.076;3.706;2023-02-19T09:02:43;102225.03;;;12.40;65.23
32735;BME280;19112;51.076;3.706;2023-02-19T09:05:10;102374.53;;;13.34;64.38
32735;BME280;19112;51.076;3.706;2023-02-19T09:07:36;102267.97;;;12.94;64.02
32735;BME280;19112;51.076;3.706;2023-02-19T09:10:03;102179.88;;;12.50;63.83
32735;BME280;19112;51.076;3.706;2023-02-19T09:12:29;101818.28;;;10.59;63.06
32735;BME280;19112;51.076;3.706;2023-02-19T09:14:54;102429.81;;;14.09;62.93
32735;BME280;19112;51.076;3.706;2023-02-19T09:17:21;102051.94;;;11.80;62.55
32735;BME280;19112;51.076;3.706;2023-02-19T09:19:46;102200.53;;;12.60;62.79
32735;BME280;19112;51.076;3.706;2023-02-19T09:22:12;102407.56;;;13.63;63.24
32735;BME280;19112;51.076;3.706;2023-02-19T09:24:38;101833.59;;;10.15;63.18
32735;BME280;19112;51.076;3.706;2023-02-19T09:27:04;102172.94;;;12.15;63.54
32735;BME280;19112;51.076;3.706;2023-02-19T09:29:30;102348.56;;;13.06;63.65
32735;BME280;19112;51.076;3.706;2023-02-19T09:31:57;102326.50;;;13.04;63.38
32735;BME280;19112;51.076;3.706;2023-02-19T09:34:25;102364.53;;;13.09;63.38
32735;BME280;19112;51.076;3.706;2023-02-19T09:36:52;101979.34;;;10.93;63.52
32735;BME280;19112;51.076;3.706;2023-02-19T09:39:18;101936.41;;;10.93;63.23
32735;BME280;19112;51.076;3.706;2023-02-19T09:41:45;102432.13;;;13.82;62.73
32735;BME280;19112;51.076;3.706;2023-02-19T09:44:37;102362.16;;;13.72;62.31
32735;BME280;19112;51.076;3.706;2023-02-19T09:47:33;102169.53;;;12.54;61.94
32735;BME280;19112;51.076;3.706;2023-02-19T09:50:07;102331.63;;;13.39;61.71
32735;BME280;19112;51.076;3.706;2023-02-19T09:52:41;102227.16;;;12.84;62.18
32735;BME280;19112;51.076;3.706;2023-02-19T09:55:33;102210.03;;;12.56;61.85
32735;BME280;19112;51.076;3.706;2023-02-19T09:58:30;102446.09;;;13.99;61.97
32735;BME280;19112;51.076;3.706;2023-02-19T10:01:00;102383.63;;;13.41;62.13
32735;BME280;19112;51.076;3.706;2023-02-19T10:03:36;102449.84;;;13.84;62.65
32735;BME280;19112;51.076;3.706;2023-02-19T10:08:47;102379.47;;;13.46;62.70
32735;BME280;19112;51.076;3.706;2023-02-19T10:11:13;102303.81;;;13.08;62.09
32735;BME280;19112;51.076;3.706;2023-02-19T10:14:01;102469.59;;;14.12;62.04
32735;BME280;19112;51.076;3.706;2023-02-19T10:16:29;102345.03;;;13.24;62.09
32735;BME280;19112;51.076;3.706;2023-02-19T10:18:55;101856.81;;;10.42;61.54
32735;BME280;19112;51.076;3.706;2023-02-19T10:21:24;102311.78;;;12.90;62.09
32735;BME280;19112;51.076;3.706;2023-02-19T10:23:54;102343.25;;;13.05;62.43
32735;BME280;19112;51.076;3.706;2023-02-19T10:26:22;102356.84;;;13.14;62.36
32735;BME280;19112;51.076;3.706;2023-02-19T10:28:48;102188.09;;;12.38;62.03
32735;BME280;19112;51.076;3.706;2023-02-19T10:31:20;102431.72;;;13.53;62.21
32735;BME280;19112;51.076;3.706;2023-02-19T10:33:56;102463.81;;;13.82;62.39
32735;BME280;19112;51.076;3.706;2023-02-19T10:36:35;102414.59;;;13.45;62.37
32735;BME280;19112;51.076;3.706;2023-02-19T10:39:38;102508.69;;;13.82;62.37
32735;BME280;19112;51.076;3.706;2023-02-19T10:42:16;102187.91;;;11.98;62.38
32735;BME280;19112;51.076;3.706;2023-02-19T10:44:45;102451.81;;;13.51;62.79
32735;BME280;19112;51.076;3.706;2023-02-19T10:47:22;102443.03;;;13.70;62.13
32735;BME280;19112;51.076;3.706;2023-02-19T10:49:50;102222.34;;;12.38;61.37
32735;BME280;19112;51.076;3.706;2023-02-19T10:52:29;102529.44;;;14.11;61.92
32735;BME280;19112;51.076;3.706;2023-02-19T10:55:20;102295.78;;;12.68;62.09
32735;BME280;19112;51.076;3.706;2023-02-19T10:57:49;102301.13;;;12.89;61.67
32735;BME280;19112;51.076;3.706;2023-02-19T11:00:25;102539.44;;;14.19;61.83
32735;BME280;19112;51.076;3.706;2023-02-19T11:03:21;102500.44;;;13.94;61.74
32735;BME280;19112;51.076;3.706;2023-02-19T11:06:08;102280.78;;;12.67;61.76
32735;BME280;19112;51.076;3.706;2023-02-19T11:08:58;102551.00;;;13.83;61.85
32735;BME280;19112;51.076;3.706;2023-02-19T11:11:37;102190.41;;;11.61;62.05
32735;BME280;19112;51.076;3.706;2023-02-19T11:14:24;102566.72;;;13.80;61.94
32735;BME280;19112;51.076;3.706;2023-02-19T11:16:55;102353.06;;;12.36;62.41
32735;BME280;19112;51.076;3.706;2023-02-19T11:19:39;102557.66;;;13.57;62.72
32735;BME280;19112;51.076;3.706;2023-02-19T11:22:32;102477.97;;;13.27;62.39
32735;BME280;19112;51.076;3.706;2023-02-19T11:27:34;102353.38;;;12.42;61.52
32735;BME280;19112;51.076;3.706;2023-02-19T11:32:56;102303.75;;;12.33;61.42
32735;BME280;19112;51.076;3.706;2023-02-19T11:35:22;102442.22;;;13.34;61.00
32735;BME280;19112;51.076;3.706;2023-02-19T11:38:00;102243.56;;;12.41;60.62
32735;BME280;19112;51.076;3.706;2023-02-19T11:49:49;102539.97;;;13.92;60.39
32735;BME280;19112;51.076;3.706;2023-02-19T11:56:15;102516.34;;;13.76;61.28
32735;BME280;19112;51.076;3.706;2023-02-19T11:58:56;102098.28;;;11.41;61.00
32735;BME280;19112;51.076;3.706;2023-02-19T12:01:40;102522.84;;;13.84;61.26
32735;BME280;19112;51.076;3.706;2023-02-19T12:04:24;102522.00;;;14.03;61.12
32735;BME280;19112;51.076;3.706;2023-02-19T12:09:43;102516.09;;;14.08;60.54
32735;BME280;19112;51.076;3.706;2023-02-19T12:12:46;102316.16;;;13.09;60.26
32735;BME280;19112;51.076;3.706;2023-02-19T12:18:19;102527.84;;;13.96;60.33
32735;BME280;19112;51.076;3.706;2023-02-19T12:21:13;102463.31;;;13.34;60.87
32735;BME280;19112;51.076;3.706;2023-02-19T12:29:41;102508.22;;;13.35;60.87
32735;BME280;19112;51.076;3.706;2023-02-19T12:38:43;102292.63;;;11.71;60.74
32735;BME280;19112;51.076;3.706;2023-02-19T12:44:08;102436.28;;;12.32;60.87
32735;BME280;19112;51.076;3.706;2023-02-19T12:46:41;102566.00;;;12.95;61.09
32735;BME280;19112;51.076;3.706;2023-02-19T12:49:25;102595.91;;;13.14;61.15
32735;BME280;19112;51.076;3.706;2023-02-19T12:52:00;102570.22;;;12.75;62.00
32735;BME280;19112;51.076;3.706;2023-02-19T12:54:39;102526.28;;;12.58;61.94
32735;BME280;19112;51.076;3.706;2023-02-19T12:57:22;102267.72;;;11.30;62.00
32735;BME280;19112;51.076;3.706;2023-02-19T13:05:31;102494.38;;;12.70;61.94
32735;BME280;19112;51.076;3.706;2023-02-19T13:08:19;102532.44;;;12.93;61.91
32735;BME280;19112;51.076;3.706;2023-02-19T13:11:45;102556.47;;;12.99;61.75
32735;BME280;19112;51.076;3.706;2023-02-19T13:14:36;102499.69;;;12.53;62.22
32735;BME280;19112;51.076;3.706;2023-02-19T13:20:33;102607.63;;;12.84;64.10
32735;BME280;19112;51.076;3.706;2023-02-19T13:26:59;102618.41;;;12.89;64.30
32735;BME280;19112;51.076;3.706;2023-02-19T13:36:12;102616.50;;;12.70;66.95
32735;BME280;19112;51.076;3.706;2023-02-19T13:38:43;102564.75;;;12.38;68.00
32735;BME280;19112;51.076;3.706;2023-02-19T13:41:35;102542.13;;;12.09;70.22
32735;BME280;19112;51.076;3.706;2023-02-19T13:44:07;102416.53;;;11.43;71.22
32735;BME280;19112;51.076;3.706;2023-02-19T13:46:44;102616.28;;;12.66;71.23
32735;BME280;19112;51.076;3.706;2023-02-19T14:01:08;102584.81;;;12.69;68.83
32735;BME280;19112;51.076;3.706;2023-02-19T14:04:08;102497.56;;;12.30;67.98
32735;BME280;19112;51.076;3.706;2023-02-19T14:14:49;102611.19;;;12.69;68.19
32735;BME280;19112;51.076;3.706;2023-02-19T14:17:41;102564.94;;;12.41;68.17
32735;BME280;19112;51.076;3.706;2023-02-19T14:23:12;102671.75;;;13.01;67.81
32735;BME280;19112;51.076;3.706;2023-02-19T14:25:47;102414.53;;;11.86;67.39
32735;BME280;19112;51.076;3.706;2023-02-19T14:28:34;102651.41;;;12.99;67.23
32735;BME280;19112;51.076;3.706;2023-02-19T14:31:28;102657.78;;;12.86;66.83
32735;BME280;19112;51.076;3.706;2023-02-19T14:34:02;102535.28;;;12.13;66.43
32735;BME280;19112;51.076;3.706;2023-02-19T14:39:36;102652.25;;;12.81;67.06
32735;BME280;19112;51.076;3.706;2023-02-19T14:42:15;102648.03;;;13.01;66.67
32735;BME280;19112;51.076;3.706;2023-02-19T14:44:53;102503.75;;;12.14;66.03
32735;BME280;19112;51.076;3.706;2023-02-19T14:47:24;101520.06;;;6.47;65.63
32735;BME280;19112;51.076;3.706;2023-02-19T14:50:06;102650.25;;;12.94;66.07
32735;BME280;19112;51.076;3.706;2023-02-19T14:52:46;102573.41;;;12.52;66.22
32735;BME280;19112;51.076;3.706;2023-02-19T14:55:32;102640.56;;;12.76;65.87
32735;BME280;19112;51.076;3.706;2023-02-19T14:58:05;102520.63;;;12.01;66.67
32735;BME280;19112;51.076;3.706;2023-02-19T15:00:38;102593.91;;;12.41;66.68
32735;BME280;19112;51.076;3.706;2023-02-19T15:03:04;102647.31;;;12.71;66.98
32735;BME280;19112;51.076;3.706;2023-02-19T15:05:33;102656.53;;;12.79;66.59
32735;BME280;19112;51.076;3.706;2023-02-19T15:08:11;102309.19;;;10.87;66.60
32735;BME280;19112;51.076;3.706;2023-02-19T15:10:41;102621.72;;;12.69;66.05